Elmaton, TX (77440)

2:02 PM CST on January 20, 2017 (GMT -0600)
Barber House | | Change Station
Active Advisory: Gale Watch

Elev 60 ft 28.97 °N, 96.07 °W | Updated 7 seconds ago

Mostly Cloudy
Mostly Cloudy
72.3 °F
Feels Like 71 °F
N
3.1
Wind Variable Wind from WSW
Gusts 3.1 mph

Today
High -- | Low -- °F
--% Chance of Precip.
Yesterday
High -- | Low -- °F
Precip. -- in
Pressure 29.72 in
Visibility 8.0 miles
Clouds Overcast 1000 ft
Heat Index 71 °F
Dew Point 68 °F
Humidity 87%
Rainfall 0.00 in
Snow Depth Not available.
7:17 AM 5:53 PM
Last Quarter, 41% visible
METAR KPSX 201953Z AUTO 22004KT 8SM OVC010 21/19 A2972 RMK AO2 SLP064 T02060189
Pressure 29.72 in
Visibility 8.0 miles
Clouds Overcast 1000 ft
Heat Index 71 °F
Dew Point 68 °F
Humidity 87%
Rainfall 0.00 in
Snow Depth Not available.
7:17 AM 5:53 PM
Last Quarter, 41% visible
METAR KPSX 201953Z AUTO 22004KT 8SM OVC010 21/19 A2972 RMK AO2 SLP064 T02060189

Get Your Daily Forecast Email!

Thanks for signing up!

Be on the lookout for a verification email in your inbox.

You'll start receiving the daily forecast at 8 AM.

×

10-Day Weather Forecast

Almanac

Astronomy

Jan. 20, 2017 Rise Set
Actual Time
Civil Twilight
Nautical Twilight
Astronomical Twilight
Moon
Length of Visible Light
Length of Day
Tomorrow will be .
, % of the Moon is Illuminated

Today's Extremes

State Highs State Lows

Community

WunderPhotos

Upload Photos

1,962,540 photos uploaded!

WunderBlog® & News

Nearby

Air Quality

  Air Quality AQ Index Pollutant
Not available.

Snow Depth

Station Depth Elevation

Earthquake Activity

City Distance Mag. Time & Date
Minimum magnitude displayed is 2.5.

Coastal Water Temperatures

Place Temperature

Stations

Nearby Weather Stations

Station Location Temp. Windchill Dew Point Humidity Wind Precip. Elev Updated Type
                   

Watches & Warnings

Gale Watch
Issued: 9:43 AM CST Jan. 20, 2017 – National Weather Service

... Gale watch remains in effect from late Saturday night through
Sunday evening...

* winds... sustained winds increasing Saturday night into Sunday... up
to 25 to 35 knots. The strongest winds are expected towards the
open waters of the Gulf of Mexico. Peak gusts offshore as high
as 40 to 45 knots are possible.

* Seas... increasing late Saturday night into Sunday. In the nearshore
waters... up to 4 to 6 feet with occasional seas up to 7 feet. In
the offshore waters... 7 to 10 feet with occasional seas up to 13
feet.

Precautionary/preparedness actions...

A gale watch is issued when the risk of gale force winds of 34 to 47
knots has significantly increased... but the specific timing and/or
location is still uncertain. It is intended to provide additional lead
time for mariners who may wish to consider altering their plans.